Aérodrome :
LOGIN :

S'inscrire | Disclaimer

   EN    FR    IT 

 










Légende :    VFR   VFR Marginal   IFR   IFR Intensif   IFR Très Intensif
Visi : 
Plafond : 
>= 8 km
>= 3000ft
5 à 8 km
1000 à 3000 ft
1500m à 5 km
500 à 1000 ft
800 à 1500m
200 à 500 ft
< 800m
< 200 ft
Symboles :   Orages  Brouillard  Fortes neiges  Fortes précipitations  Vent > 20 kt
SIGMETs :   Divers  Orages  Givrage  Turbulence  Onde Orograph.  Cendres Volcan.






- Altitude de l'aérodrome : 53 ft
- Code IATA : HAM


EDDH - Hamburg

DERNIER METAR :
  • 190250Z 21020G30KT 9999 -RA FEW016 SCT019 BKN028 06/03 Q1006 NOSIG

METARs EXPIRÉS :
  • 190220Z 21019KT 9999 -RA FEW017 BKN028 06/03 Q1007 TEMPO 24015G25KT
  • 190150Z 21017KT 9999 -RA FEW018 BKN026 06/03 Q1007 TEMPO 24015G25KT
  • 190120Z 21017KT 9999 -RA SCT016 BKN021 06/03 Q1008 TEMPO 24015G25KT
  • 190050Z 21018KT 9999 -RA SCT017 BKN024 06/03 Q1009 TEMPO 24015G25KT
  • 190020Z 22017G28KT 9999 -RA SCT020 BKN026 07/03 Q1009 NOSIG

TAF TAF EDDH
Valide du 19 à 00h jusqu'au 20 à 06h UTC


182300Z 1900/2006 21013KT 9999 BKN020
TEMPO 1900/1905 23015G25KT
TEMPO 1902/1905 RA BKN012
BECMG 1905/1907 28012KT
TEMPO 1905/1908 BKN012
BECMG 1908/1910 27015G25KT
TEMPO 1908/1916 SHRA BKN014CB
TEMPO 1910/1916 28020G30KT
BECMG 1917/1919 26010KT
BECMG 2000/2002 20010KT
TEMPO 2004/2006 BKN012



MET'MAP, la Météo Aéronautique d'un coup d'oeil ! - Copyright ORBIFLY Décembre 2007 - Disclaimer

ORBIFLY MET'MAP TEAM :

Programmation & Développement : Alexandra Zaïnal
Sur une idée originale de : Baudouin d'Aumeries
Assistance à la programmation : Marc-Olivier Méhu
Soutien technique & logistique : Manuel Goepfert

Contact : metmap@orbifly.com




SOURCES & CREDITS :

   NOAA